Time;durP1;ratioP1;P1;durP2;ratioP2;P2;SDS_P1;SDS_P2;PMS_P1;PMS_P2;Temp;Humidity;BMP_temperature;BMP_pressure;BME280_temperature;BME280_humidity;BME280_pressure;Samples;Min_cycle;Max_cycle;Signal;HPM_P1;HPM_P2
2023/01/19 00:02:22;;;;;;;6.77;5.03;;;;;;;-142.25;100.00;58004.16;5045700;28;20566;-73
2023/01/19 00:04:47;;;;;;;2.80;2.43;;;;;;;-142.25;100.00;58004.16;5046573;28;20066;-72
2023/01/19 00:07:14;;;;;;;3.30;3.00;;;;;;;-142.25;100.00;58004.16;5047318;28;20599;-72
2023/01/19 00:09:39;;;;;;;3.93;3.37;;;;;;;-142.25;100.00;58004.16;5042662;28;20048;-73
2023/01/19 00:12:05;;;;;;;3.20;2.90;;;;;;;-142.25;100.00;58004.16;5030327;28;20043;-72
2023/01/19 00:14:31;;;;;;;3.03;2.73;;;;;;;-142.25;100.00;58004.16;5049107;28;20041;-72
2023/01/19 00:16:57;;;;;;;4.70;2.97;;;;;;;-142.25;100.00;58004.16;5045526;28;20511;-72
2023/01/19 00:19:23;;;;;;;6.20;5.23;;;;;;;-142.25;100.00;58004.16;5046015;28;20354;-72
2023/01/19 00:21:49;;;;;;;66.17;42.50;;;;;;;-142.25;100.00;58004.16;5046407;28;20110;-73
2023/01/19 00:24:14;;;;;;;4.37;2.83;;;;;;;-142.25;100.00;58004.16;5031626;28;20080;-72
2023/01/19 00:26:41;;;;;;;3.63;3.27;;;;;;;-142.25;100.00;58004.16;5046378;28;20500;-73
2023/01/19 00:29:10;;;;;;;7.20;6.50;;;;;;;-142.25;100.00;58004.16;5047708;28;20112;-72
2023/01/19 00:31:36;;;;;;;4.77;4.17;;;;;;;-142.25;100.00;58004.16;5033895;28;20033;-71
2023/01/19 00:34:03;;;;;;;7.77;4.90;;;;;;;-142.25;100.00;58004.16;5045931;28;20405;-72
2023/01/19 00:36:29;;;;;;;7.07;4.83;;;;;;;-142.25;100.00;58004.16;5044641;28;20044;-72
2023/01/19 00:38:55;;;;;;;2.87;2.67;;;;;;;-142.25;100.00;58004.16;5047395;28;20072;-72
2023/01/19 00:42:38;;;;;;;8.53;7.10;;;;;;;-142.25;100.00;58004.16;5041772;28;20140;-71
2023/01/19 00:44:07;;;;;;;9.17;6.53;;;;;;;-142.25;100.00;58004.16;5040265;28;20201;-72
2023/01/19 00:46:33;;;;;;;8.67;5.27;;;;;;;-142.25;100.00;58004.16;5047262;28;20132;-71
2023/01/19 00:48:59;;;;;;;11.57;6.57;;;;;;;-142.25;100.00;58004.16;5047725;28;20049;-71
2023/01/19 00:51:24;;;;;;;4.37;3.97;;;;;;;-142.25;100.00;58004.16;5027547;28;20080;-71
2023/01/19 00:53:50;;;;;;;5.17;4.47;;;;;;;-142.25;100.00;58004.16;5037705;28;20087;-71
2023/01/19 00:56:16;;;;;;;7.23;4.50;;;;;;;-142.25;100.00;58004.16;5040522;28;20057;-72
2023/01/19 00:58:43;;;;;;;9.93;5.10;;;;;;;-142.25;100.00;58004.16;5037788;28;20044;-71
2023/01/19 01:01:10;;;;;;;8.67;5.03;;;;;;;-142.25;100.00;58004.16;5026029;28;20045;-72
2023/01/19 01:03:36;;;;;;;7.40;5.67;;;;;;;-142.25;100.00;58004.16;5044792;28;20375;-74
2023/01/19 01:06:02;;;;;;;6.53;4.37;;;;;;;-142.25;100.00;58004.16;5029543;28;20056;-71
2023/01/19 01:08:29;;;;;;;6.80;5.40;;;;;;;-142.25;100.00;58004.16;5048375;28;20068;-73
2023/01/19 01:10:55;;;;;;;7.70;5.53;;;;;;;-142.25;100.00;58004.16;5030910;28;20436;-73
2023/01/19 01:13:21;;;;;;;9.63;5.87;;;;;;;-142.25;100.00;58004.16;5047918;28;20050;-72
2023/01/19 01:15:54;;;;;;;7.13;5.70;;;;;;;-142.25;100.00;58004.16;5035633;28;20045;-72
2023/01/19 01:18:20;;;;;;;11.03;7.90;;;;;;;-142.25;100.00;58004.16;5048796;28;20049;-72
2023/01/19 01:20:46;;;;;;;185.80;98.77;;;;;;;-142.25;100.00;58004.16;5050167;28;20051;-72
2023/01/19 01:23:12;;;;;;;12.10;10.90;;;;;;;-142.25;100.00;58004.16;5048673;28;20049;-73
2023/01/19 01:25:38;;;;;;;94.00;70.17;;;;;;;-142.25;100.00;58004.16;5047807;28;20129;-72
2023/01/19 01:28:07;;;;;;;229.57;105.00;;;;;;;-142.25;100.00;58004.16;5046774;28;20508;-72
2023/01/19 01:30:39;;;;;;;240.77;104.77;;;;;;;-142.25;100.00;58004.16;5046597;28;20095;-73
2023/01/19 01:33:10;;;;;;;184.93;96.17;;;;;;;-142.25;100.00;58004.16;5046335;28;20132;-73
2023/01/19 01:35:36;;;;;;;184.70;102.77;;;;;;;-142.25;100.00;58004.16;5046350;28;20151;-72
2023/01/19 01:38:02;;;;;;;191.37;102.50;;;;;;;-142.25;100.00;58004.16;5041359;28;20040;-73
2023/01/19 01:40:28;;;;;;;94.37;79.30;;;;;;;-142.25;100.00;58004.16;5043620;28;20033;-72
2023/01/19 01:42:54;;;;;;;188.57;96.70;;;;;;;-142.25;100.00;58004.16;5030679;28;20349;-73
2023/01/19 01:45:35;;;;;;;180.93;93.53;;;;;;;-142.25;100.00;58004.16;5014049;28;20613;-71
2023/01/19 01:48:29;;;;;;;92.10;76.70;;;;;;;-142.25;100.00;58004.16;5045356;28;20051;-72
2023/01/19 01:51:23;;;;;;;42.50;39.33;;;;;;;-142.25;100.00;58004.16;5043007;28;20052;-71
2023/01/19 01:54:15;;;;;;;142.60;96.27;;;;;;;-142.25;100.00;58004.16;5046967;28;20116;-71
2023/01/19 01:56:47;;;;;;;134.60;88.37;;;;;;;-142.25;100.00;58004.16;5048586;28;20146;-72
2023/01/19 01:59:28;;;;;;;129.00;84.90;;;;;;;-142.25;100.00;58004.16;5045338;28;20684;-70
2023/01/19 02:04:52;;;;;;;108.70;80.47;;;;;;;-142.25;100.00;58004.16;5045732;28;20115;-72
2023/01/19 02:13:25;;;;;;;71.03;63.70;;;;;;;-142.25;100.00;58004.16;5043218;28;20111;-73
2023/01/19 02:16:05;;;;;;;113.27;81.73;;;;;;;-142.25;100.00;58004.16;5046499;28;20099;-71
2023/01/19 02:18:31;;;;;;;83.80;73.50;;;;;;;-142.25;100.00;58004.16;5044743;28;20057;-73
2023/01/19 02:21:15;;;;;;;90.13;79.33;;;;;;;-142.25;100.00;58004.16;5043656;28;20049;-71
2023/01/19 02:23:52;;;;;;;79.87;70.10;;;;;;;-142.25;100.00;58004.16;5041985;28;20045;-71
2023/01/19 02:26:20;;;;;;;103.80;84.00;;;;;;;-142.25;100.00;58004.16;5027096;28;20041;-71
2023/01/19 02:28:50;;;;;;;90.63;79.43;;;;;;;-142.25;100.00;58004.16;5043307;28;20060;-71
2023/01/19 02:31:16;;;;;;;90.13;80.50;;;;;;;-142.25;100.00;58004.16;5032739;28;20032;-70
2023/01/19 02:33:42;;;;;;;169.43;99.73;;;;;;;-142.25;100.00;58004.16;5043294;28;20048;-71
2023/01/19 02:36:10;;;;;;;197.30;102.37;;;;;;;-142.25;100.00;58004.16;5044590;28;20049;-72
2023/01/19 02:38:39;;;;;;;218.47;105.50;;;;;;;-142.25;100.00;58004.16;5043047;28;20040;-70
2023/01/19 02:41:07;;;;;;;205.30;102.00;;;;;;;-142.25;100.00;58004.16;5043115;28;20045;-71
2023/01/19 02:43:35;;;;;;;214.77;104.60;;;;;;;-142.25;100.00;58004.16;5043829;28;20710;-71
2023/01/19 02:46:02;;;;;;;196.73;104.17;;;;;;;-142.25;100.00;58004.16;5044067;28;20041;-73
2023/01/19 02:48:27;;;;;;;229.60;109.40;;;;;;;-142.25;100.00;58004.16;5044861;28;20164;-70
2023/01/19 02:51:03;;;;;;;237.90;105.67;;;;;;;-142.25;100.00;58004.16;5044423;28;20136;-72
2023/01/19 02:53:31;;;;;;;229.10;106.07;;;;;;;-142.25;100.00;58004.16;5039242;28;20426;-71
2023/01/19 02:56:17;;;;;;;214.57;106.07;;;;;;;-142.25;100.00;58004.16;5042748;28;20045;-70
2023/01/19 02:59:03;;;;;;;199.10;102.70;;;;;;;-142.25;100.00;58004.16;5042590;28;20144;-71
2023/01/19 03:01:37;;;;;;;;;;;;;;;-142.25;100.00;58004.16;5045480;28;20040;-71
2023/01/19 03:04:27;;;;;;;123.70;85.07;;;;;;;-142.25;100.00;58004.16;5043519;28;19916;-70
2023/01/19 03:07:17;;;;;;;146.90;94.17;;;;;;;-142.25;100.00;58004.16;5043077;28;20386;-71
2023/01/19 03:10:06;;;;;;;116.40;88.63;;;;;;;-142.25;100.00;58004.16;5046326;28;20044;-71
2023/01/19 03:12:45;;;;;;;91.30;81.33;;;;;;;-142.25;100.00;58004.16;5045098;28;20158;-71
2023/01/19 03:15:28;;;;;;;80.93;73.00;;;;;;;-142.25;100.00;58004.16;5043306;28;20052;-71
2023/01/19 03:17:56;;;;;;;76.50;69.53;;;;;;;-142.25;100.00;58004.16;5044193;28;20134;-70
2023/01/19 03:20:24;;;;;;;70.13;64.03;;;;;;;-142.25;100.00;58004.16;5042351;28;20131;-71
2023/01/19 03:22:56;;;;;;;70.47;64.17;;;;;;;-142.25;100.00;58004.16;5043123;28;20120;-71
2023/01/19 03:25:23;;;;;;;53.70;49.37;;;;;;;-142.25;100.00;58004.16;5042876;28;20044;-72
2023/01/19 03:27:52;;;;;;;54.30;49.93;;;;;;;-142.25;100.00;58004.16;5045488;28;20149;-70
2023/01/19 03:30:24;;;;;;;73.53;67.20;;;;;;;-142.25;100.00;58004.16;5043652;28;20710;-70
2023/01/19 03:32:55;;;;;;;90.30;81.23;;;;;;;-142.25;100.00;58004.16;5026283;28;20041;-73
2023/01/19 03:35:23;;;;;;;86.13;77.03;;;;;;;-142.25;100.00;58004.16;5043218;28;20037;-70
2023/01/19 03:37:53;;;;;;;89.93;80.23;;;;;;;-142.25;100.00;58004.16;5043351;28;20245;-70
2023/01/19 03:40:20;;;;;;;79.50;71.43;;;;;;;-142.25;100.00;58004.16;5047071;28;20044;-70
2023/01/19 03:42:47;;;;;;;72.33;65.20;;;;;;;-142.25;100.00;58004.16;5045005;28;20142;-72
2023/01/19 03:45:14;;;;;;;56.10;51.60;;;;;;;-142.25;100.00;58004.16;5030899;28;20052;-71
2023/01/19 03:47:40;;;;;;;45.60;42.13;;;;;;;-142.25;100.00;58004.16;5046564;28;20051;-71
2023/01/19 03:50:12;;;;;;;80.07;72.13;;;;;;;-142.25;100.00;58004.16;5046537;28;20045;-71
2023/01/19 03:52:38;;;;;;;77.63;70.17;;;;;;;-142.25;100.00;58004.16;5048763;28;20030;-73
2023/01/19 03:55:04;;;;;;;80.17;72.23;;;;;;;-142.25;100.00;58004.16;5048645;28;20044;-71
2023/01/19 03:57:30;;;;;;;76.17;68.87;;;;;;;-142.25;100.00;58004.16;5046841;28;20098;-71
2023/01/19 03:59:57;;;;;;;59.13;53.87;;;;;;;-142.25;100.00;58004.16;5048033;28;20037;-71
2023/01/19 04:02:23;;;;;;;61.07;55.63;;;;;;;-142.25;100.00;58004.16;5040626;28;20126;-71
2023/01/19 04:04:48;;;;;;;42.60;39.37;;;;;;;-142.25;100.00;58004.16;5044049;28;20033;-71
2023/01/19 04:07:15;;;;;;;25.83;23.63;;;;;;;-142.25;100.00;58004.16;5042565;28;20467;-71
2023/01/19 04:09:41;;;;;;;20.57;18.37;;;;;;;-142.25;100.00;58004.16;5041305;28;20037;-70
2023/01/19 04:12:07;;;;;;;26.93;24.57;;;;;;;-142.25;100.00;58004.16;5041672;28;20049;-69
2023/01/19 04:14:32;;;;;;;18.03;16.23;;;;;;;-142.25;100.00;58004.16;5041653;28;20049;-71
2023/01/19 04:16:58;;;;;;;17.43;14.73;;;;;;;-142.25;100.00;58004.16;5042371;28;20036;-70
2023/01/19 04:19:24;;;;;;;14.17;10.13;;;;;;;-142.25;100.00;58004.16;5041045;28;20090;-69
2023/01/19 04:21:50;;;;;;;17.77;15.60;;;;;;;-142.25;100.00;58004.16;5039764;28;20444;-70
2023/01/19 04:24:17;;;;;;;12.27;8.63;;;;;;;-142.25;100.00;58004.16;5043075;28;20423;-70
2023/01/19 04:26:43;;;;;;;13.50;9.77;;;;;;;-142.25;100.00;58004.16;5043247;28;20061;-70
2023/01/19 04:29:09;;;;;;;12.47;8.50;;;;;;;-142.25;100.00;58004.16;5041025;28;20483;-71
2023/01/19 04:31:35;;;;;;;13.47;8.27;;;;;;;-142.25;100.00;58004.16;5044338;28;20115;-72
2023/01/19 04:34:02;;;;;;;13.87;8.97;;;;;;;-142.25;100.00;58004.16;5040932;28;20086;-72
2023/01/19 04:36:27;;;;;;;13.47;9.07;;;;;;;-142.25;100.00;58004.16;5041967;28;20055;-72
2023/01/19 04:38:53;;;;;;;11.73;8.07;;;;;;;-142.25;100.00;58004.16;5041664;28;20041;-70
2023/01/19 04:41:19;;;;;;;12.60;8.70;;;;;;;-142.25;100.00;58004.16;5043538;28;20506;-71
2023/01/19 04:43:46;;;;;;;11.47;9.10;;;;;;;-142.25;100.00;58004.16;5040657;28;20098;-70
2023/01/19 04:46:13;;;;;;;17.07;9.80;;;;;;;-142.25;100.00;58004.16;5043701;28;20056;-70
2023/01/19 04:48:39;;;;;;;13.83;8.47;;;;;;;-142.25;100.00;58004.16;5041717;28;20123;-71
2023/01/19 04:51:04;;;;;;;14.00;10.07;;;;;;;-142.25;100.00;58004.16;5045148;28;20127;-72
2023/01/19 04:53:30;;;;;;;14.23;9.33;;;;;;;-142.25;100.00;58004.16;5023729;28;20049;-70
2023/01/19 04:55:57;;;;;;;12.57;9.70;;;;;;;-142.25;100.00;58004.16;5040957;28;20614;-70
2023/01/19 04:58:23;;;;;;;15.70;9.77;;;;;;;-142.25;100.00;58004.16;5045106;28;20045;-71
2023/01/19 05:00:50;;;;;;;14.27;8.63;;;;;;;-142.25;100.00;58004.16;5044221;28;20571;-71
2023/01/19 05:03:15;;;;;;;16.13;9.67;;;;;;;-142.25;100.00;58004.16;5044513;28;20106;-73
2023/01/19 05:05:41;;;;;;;11.97;8.00;;;;;;;-142.25;100.00;58004.16;5045643;28;20040;-71
2023/01/19 05:08:07;;;;;;;11.73;9.10;;;;;;;-142.25;100.00;58004.16;5041126;28;20574;-71
2023/01/19 05:10:33;;;;;;;13.27;9.20;;;;;;;-142.25;100.00;58004.16;5045635;28;20033;-72
2023/01/19 05:12:58;;;;;;;9.73;7.27;;;;;;;-142.25;100.00;58004.16;5045993;28;20131;-70
2023/01/19 05:15:24;;;;;;;11.50;8.57;;;;;;;-142.25;100.00;58004.16;5048707;28;20041;-70
2023/01/19 05:17:49;;;;;;;12.40;8.17;;;;;;;-142.25;100.00;58004.16;5047709;28;20044;-70
2023/01/19 05:20:16;;;;;;;11.90;7.87;;;;;;;-142.25;100.00;58004.16;5044686;28;20560;-70
2023/01/19 05:22:42;;;;;;;12.77;8.67;;;;;;;-142.25;100.00;58004.16;5044902;28;20136;-71
2023/01/19 05:25:08;;;;;;;13.87;9.03;;;;;;;-142.25;100.00;58004.16;5046960;28;20488;-72
2023/01/19 05:27:34;;;;;;;12.53;8.53;;;;;;;-142.25;100.00;58004.16;5045013;28;20041;-71
2023/01/19 05:29:59;;;;;;;12.13;7.17;;;;;;;-142.25;100.00;58004.16;5045379;28;20040;-70
2023/01/19 05:32:25;;;;;;;11.10;8.57;;;;;;;-142.25;100.00;58004.16;5044158;28;20284;-72
2023/01/19 05:34:51;;;;;;;13.17;9.90;;;;;;;-142.25;100.00;58004.16;5043311;28;20053;-71
2023/01/19 05:37:17;;;;;;;11.33;7.70;;;;;;;-142.25;100.00;58004.16;5043858;28;20055;-70
2023/01/19 05:39:42;;;;;;;11.87;7.20;;;;;;;-142.25;100.00;58004.16;5045614;28;20178;-71
2023/01/19 05:42:08;;;;;;;9.67;6.90;;;;;;;-142.25;100.00;58004.16;5032346;28;20045;-70
2023/01/19 05:44:34;;;;;;;11.87;7.77;;;;;;;-142.25;100.00;58004.16;5053605;28;20116;-70
2023/01/19 05:46:59;;;;;;;8.77;6.27;;;;;;;-142.25;100.00;58004.16;5048807;28;20032;-71
2023/01/19 05:49:25;;;;;;;11.13;7.27;;;;;;;-142.25;100.00;58004.16;5043104;28;20860;-71
2023/01/19 05:51:50;;;;;;;11.90;7.00;;;;;;;-142.25;100.00;58004.16;5042315;28;20424;-70
2023/01/19 05:54:16;;;;;;;16.80;9.00;;;;;;;-142.25;100.00;58004.16;5045084;28;20163;-72
2023/01/19 05:56:42;;;;;;;12.97;7.07;;;;;;;-142.25;100.00;58004.16;5056991;28;20101;-69
2023/01/19 05:59:08;;;;;;;12.63;8.47;;;;;;;-142.25;100.00;58004.16;5058411;28;20123;-71
2023/01/19 06:01:35;;;;;;;12.20;7.80;;;;;;;-142.25;100.00;58004.16;5055224;28;20602;-69
2023/01/19 06:04:01;;;;;;;12.10;8.27;;;;;;;-142.25;100.00;58004.16;5052627;28;20174;-68
2023/01/19 06:06:27;;;;;;;11.73;8.90;;;;;;;-142.25;100.00;58004.16;5028504;28;20100;-66
2023/01/19 06:08:53;;;;;;;12.63;8.10;;;;;;;-142.25;100.00;58004.16;5043858;28;20404;-68
2023/01/19 06:11:19;;;;;;;18.50;9.50;;;;;;;-142.25;100.00;58004.16;5043902;28;20128;-73
2023/01/19 06:13:46;;;;;;;15.67;10.60;;;;;;;-142.25;100.00;58004.16;5042164;28;20052;-72
2023/01/19 06:16:13;;;;;;;13.33;9.10;;;;;;;-142.25;100.00;58004.16;5046379;28;20056;-73
2023/01/19 06:18:39;;;;;;;15.90;10.80;;;;;;;-142.25;100.00;58004.16;5042516;28;20045;-73
2023/01/19 06:21:07;;;;;;;14.93;9.10;;;;;;;-142.25;100.00;58004.16;5043794;28;20056;-73
2023/01/19 06:23:34;;;;;;;14.63;10.00;;;;;;;-142.25;100.00;58004.16;5041858;28;20037;-73
2023/01/19 06:26:01;;;;;;;14.97;10.50;;;;;;;-142.25;100.00;58004.16;5042570;28;20037;-72
2023/01/19 06:28:27;;;;;;;16.73;9.70;;;;;;;-142.25;100.00;58004.16;5041362;28;20041;-72
2023/01/19 06:30:54;;;;;;;17.90;11.03;;;;;;;-142.25;100.00;58004.16;5041920;28;20513;-72
2023/01/19 06:33:20;;;;;;;15.53;10.13;;;;;;;-142.25;100.00;58004.16;5041668;28;20591;-73
2023/01/19 06:35:47;;;;;;;17.77;10.77;;;;;;;-142.25;100.00;58004.16;5042623;28;20046;-72
2023/01/19 06:38:15;;;;;;;15.77;9.57;;;;;;;-142.25;100.00;58004.16;5043540;28;20045;-72
2023/01/19 06:40:42;;;;;;;13.83;9.27;;;;;;;-142.25;100.00;58004.16;5044901;28;20056;-72
2023/01/19 06:43:08;;;;;;;17.50;12.33;;;;;;;-142.25;100.00;58004.16;5044078;28;20462;-65
2023/01/19 06:45:33;;;;;;;15.20;11.00;;;;;;;-142.25;100.00;58004.16;5039992;28;20053;-69
2023/01/19 06:47:59;;;;;;;16.80;12.27;;;;;;;-142.25;100.00;58004.16;5037200;28;20047;-69
2023/01/19 06:50:25;;;;;;;15.67;9.90;;;;;;;-142.25;100.00;58004.16;5038923;28;20078;-68
2023/01/19 06:52:51;;;;;;;16.50;10.53;;;;;;;-142.25;100.00;58004.16;5039819;28;20068;-68
2023/01/19 06:55:18;;;;;;;20.60;10.60;;;;;;;-142.25;100.00;58004.16;5047122;28;20486;-68
2023/01/19 06:57:44;;;;;;;16.93;10.90;;;;;;;-142.25;100.00;58004.16;5031235;28;20587;-69
2023/01/19 07:00:11;;;;;;;17.37;11.23;;;;;;;-142.25;100.00;58004.16;5027010;28;20045;-65
2023/01/19 07:02:41;;;;;;;15.37;10.87;;;;;;;-142.25;100.00;58004.16;5040366;28;20032;-68
2023/01/19 07:05:08;;;;;;;15.90;10.30;;;;;;;-142.25;100.00;58004.16;5040949;28;20041;-66
2023/01/19 07:07:34;;;;;;;15.53;12.00;;;;;;;-142.25;100.00;58004.16;5042869;28;20136;-66
2023/01/19 07:10:00;;;;;;;14.90;10.03;;;;;;;-142.25;100.00;58004.16;5045346;28;20044;-66
2023/01/19 07:12:25;;;;;;;19.17;12.40;;;;;;;-142.25;100.00;58004.16;5040907;28;20033;-66
2023/01/19 07:14:51;;;;;;;21.37;11.80;;;;;;;-142.25;100.00;58004.16;5039652;28;20055;-67
2023/01/19 07:17:18;;;;;;;17.00;11.73;;;;;;;-142.25;100.00;58004.16;5041296;28;20395;-66
2023/01/19 07:19:45;;;;;;;16.23;11.07;;;;;;;-142.25;100.00;58004.16;5042304;28;20057;-67
2023/01/19 07:22:10;;;;;;;12.73;9.43;;;;;;;-142.25;100.00;58004.16;5040557;28;20569;-66
2023/01/19 07:24:36;;;;;;;15.03;9.77;;;;;;;-142.25;100.00;58004.16;5024804;28;20810;-66
2023/01/19 07:27:04;;;;;;;12.53;8.83;;;;;;;-142.25;100.00;58004.16;5042828;28;20049;-67
2023/01/19 07:29:29;;;;;;;16.27;10.40;;;;;;;-142.25;100.00;58004.16;5039742;28;20055;-68
2023/01/19 07:31:55;;;;;;;13.03;8.67;;;;;;;-142.25;100.00;58004.16;5046376;28;20041;-67
2023/01/19 07:34:21;;;;;;;15.13;8.93;;;;;;;-142.25;100.00;58004.16;5044480;28;20045;-67
2023/01/19 07:36:47;;;;;;;15.47;9.50;;;;;;;-142.25;100.00;58004.16;5044649;28;20045;-67
2023/01/19 07:39:13;;;;;;;13.73;8.57;;;;;;;-142.25;100.00;58004.16;5042537;28;20033;-67
2023/01/19 07:41:38;;;;;;;13.70;9.77;;;;;;;-142.25;100.00;58004.16;5042486;28;20604;-67
2023/01/19 07:44:07;;;;;;;13.33;8.37;;;;;;;-142.25;100.00;58004.16;5028153;28;20180;-67
2023/01/19 07:46:33;;;;;;;12.23;7.27;;;;;;;-142.25;100.00;58004.16;5041778;28;20603;-66
2023/01/19 07:48:59;;;;;;;11.70;6.97;;;;;;;-142.25;100.00;58004.16;5039839;28;20059;-68
2023/01/19 07:51:24;;;;;;;12.37;8.07;;;;;;;-142.25;100.00;58004.16;5041749;28;20045;-65
2023/01/19 07:53:50;;;;;;;11.87;7.83;;;;;;;-142.25;100.00;58004.16;5041296;28;20478;-64
2023/01/19 07:56:16;;;;;;;13.77;8.27;;;;;;;-142.25;100.00;58004.16;5042326;28;20074;-66
2023/01/19 07:58:42;;;;;;;10.53;7.40;;;;;;;-142.25;100.00;58004.16;5042959;28;20429;-65
2023/01/19 08:01:11;;;;;;;14.03;8.73;;;;;;;-142.25;100.00;58004.16;5043148;28;20145;-64
2023/01/19 08:03:37;;;;;;;17.50;10.67;;;;;;;-142.25;100.00;58004.16;5041667;28;20142;-67
2023/01/19 08:06:04;;;;;;;12.17;8.97;;;;;;;-142.25;100.00;58004.16;5046070;28;20073;-65
2023/01/19 08:08:31;;;;;;;10.70;7.23;;;;;;;-142.25;100.00;58004.16;5045708;28;20056;-69
2023/01/19 08:10:57;;;;;;;11.90;8.63;;;;;;;-142.25;100.00;58004.16;5045710;28;20072;-67
2023/01/19 08:13:23;;;;;;;10.53;8.57;;;;;;;-142.25;100.00;58004.16;5038609;28;20043;-68
2023/01/19 08:15:50;;;;;;;14.30;8.60;;;;;;;-142.25;100.00;58004.16;5029223;28;20049;-67
2023/01/19 08:18:16;;;;;;;14.20;9.53;;;;;;;-142.25;100.00;58004.16;5039019;28;20143;-69
2023/01/19 08:20:45;;;;;;;11.87;8.43;;;;;;;-142.25;100.00;58004.16;5026290;28;20510;-67
2023/01/19 08:23:11;;;;;;;17.43;11.93;;;;;;;-142.25;100.00;58004.16;5041731;28;20040;-66
2023/01/19 08:25:41;;;;;;;11.73;8.97;;;;;;;-142.25;100.00;58004.16;5039645;28;20505;-67
2023/01/19 08:28:08;;;;;;;16.17;10.07;;;;;;;-142.25;100.00;58004.16;5025634;28;20045;-66
2023/01/19 08:30:34;;;;;;;12.10;8.73;;;;;;;-142.25;100.00;58004.16;5042847;28;20068;-65
2023/01/19 08:33:06;;;;;;;15.33;10.87;;;;;;;-142.25;100.00;58004.16;5038882;28;20889;-66
2023/01/19 08:35:35;;;;;;;8.90;7.37;;;;;;;-142.25;100.00;58004.16;5041628;28;20041;-68
2023/01/19 08:38:01;;;;;;;13.07;8.70;;;;;;;-142.25;100.00;58004.16;5038501;28;20404;-68
2023/01/19 08:40:29;;;;;;;10.87;7.57;;;;;;;-142.25;100.00;58004.16;5043189;28;20514;-66
2023/01/19 08:43:04;;;;;;;10.80;7.70;;;;;;;-142.25;100.00;58004.16;5007013;28;20041;-67
2023/01/19 08:45:30;;;;;;;;;;;;;;;-142.25;100.00;58004.16;5043455;28;20039;-67
2023/01/19 08:47:57;;;;;;;10.43;7.40;;;;;;;-142.25;100.00;58004.16;5038899;28;19917;-65
2023/01/19 08:50:28;;;;;;;10.13;7.07;;;;;;;-142.25;100.00;58004.16;5042258;28;20037;-63
2023/01/19 08:52:58;;;;;;;14.43;8.40;;;;;;;-142.25;100.00;58004.16;5037627;28;20044;-65
2023/01/19 08:55:25;;;;;;;11.87;8.90;;;;;;;-142.25;100.00;58004.16;5021513;28;20349;-62
2023/01/19 08:57:52;;;;;;;12.47;8.33;;;;;;;-142.25;100.00;58004.16;5040642;28;20422;-66
2023/01/19 09:00:19;;;;;;;13.13;7.63;;;;;;;-142.25;100.00;58004.16;5040041;28;20045;-69
2023/01/19 09:02:45;;;;;;;11.63;7.83;;;;;;;-142.25;100.00;58004.16;5037998;28;20112;-69
2023/01/19 09:05:11;;;;;;;9.80;7.00;;;;;;;-142.25;100.00;58004.16;5042368;28;20073;-68
2023/01/19 09:07:37;;;;;;;8.83;7.00;;;;;;;-142.25;100.00;58004.16;5037099;28;20124;-67
2023/01/19 09:10:04;;;;;;;9.27;7.00;;;;;;;-142.25;100.00;58004.16;5040838;28;20056;-65
2023/01/19 09:12:30;;;;;;;8.73;5.80;;;;;;;-142.25;100.00;58004.16;5041962;28;20366;-66
2023/01/19 09:14:58;;;;;;;11.40;6.57;;;;;;;-142.25;100.00;58004.16;5039150;28;20049;-66
2023/01/19 09:17:24;;;;;;;11.53;7.80;;;;;;;-142.25;100.00;58004.16;5038961;28;20057;-65
2023/01/19 09:19:49;;;;;;;8.70;6.13;;;;;;;-142.25;100.00;58004.16;5027925;28;20068;-66
2023/01/19 09:22:15;;;;;;;12.00;8.20;;;;;;;-142.25;100.00;58004.16;5039493;28;20036;-67
2023/01/19 09:24:41;;;;;;;12.07;6.60;;;;;;;-142.25;100.00;58004.16;5041122;28;20048;-68
2023/01/19 09:27:06;;;;;;;10.97;7.20;;;;;;;-142.25;100.00;58004.16;5036776;28;20123;-67
2023/01/19 09:29:32;;;;;;;6.30;5.47;;;;;;;-142.25;100.00;58004.16;5036390;28;20478;-71
2023/01/19 09:31:58;;;;;;;10.00;7.57;;;;;;;-142.25;100.00;58004.16;5040336;28;20037;-69
2023/01/19 09:34:24;;;;;;;8.27;6.13;;;;;;;-142.25;100.00;58004.16;5041292;28;20055;-69
2023/01/19 09:36:51;;;;;;;8.13;6.17;;;;;;;-142.25;100.00;58004.16;5043398;28;20083;-71
2023/01/19 09:39:16;;;;;;;7.23;5.77;;;;;;;-142.25;100.00;58004.16;5042840;28;20050;-68
2023/01/19 09:41:47;;;;;;;7.17;5.50;;;;;;;-142.25;100.00;58004.16;5043338;28;20142;-68
2023/01/19 09:44:26;;;;;;;8.93;6.63;;;;;;;-142.25;100.00;58004.16;5041846;28;20070;-66
2023/01/19 09:46:52;;;;;;;7.80;5.20;;;;;;;-142.25;100.00;58004.16;5043733;28;20033;-68
2023/01/19 09:49:38;;;;;;;7.80;5.83;;;;;;;-142.25;100.00;58004.16;5042608;28;20356;-68
2023/01/19 09:52:04;;;;;;;6.63;4.90;;;;;;;-142.25;100.00;58004.16;5043967;28;20721;-70
2023/01/19 09:54:51;;;;;;;6.83;5.03;;;;;;;-142.25;100.00;58004.16;5042316;28;20124;-69
2023/01/19 09:57:17;;;;;;;6.73;5.57;;;;;;;-142.25;100.00;58004.16;5037094;28;20629;-68
2023/01/19 09:59:46;;;;;;;7.50;5.33;;;;;;;-142.25;100.00;58004.16;5039867;28;20060;-69
2023/01/19 10:03:00;;;;;;;8.37;5.77;;;;;;;-142.25;100.00;58004.16;5029697;28;20068;-68
2023/01/19 10:05:45;;;;;;;8.30;4.83;;;;;;;-142.25;100.00;58004.16;5029466;28;20057;-68
2023/01/19 10:08:16;;;;;;;5.53;4.80;;;;;;;-142.25;100.00;58004.16;5039209;28;20033;-66
2023/01/19 10:10:49;;;;;;;8.20;5.53;;;;;;;-142.25;100.00;58004.16;5012208;28;20045;-66
2023/01/19 10:13:35;;;;;;;7.10;5.07;;;;;;;-142.25;100.00;58004.16;5027511;28;20037;-65
2023/01/19 10:16:15;;;;;;;9.07;6.05;;;;;;;-142.25;100.00;58004.16;5039387;28;20250;-67
2023/01/19 10:18:46;;;;;;;7.47;5.60;;;;;;;-142.25;100.00;58004.16;5042596;28;20057;-66
2023/01/19 10:21:26;;;;;;;8.13;5.63;;;;;;;-142.25;100.00;58004.16;5043571;28;20046;-65
2023/01/19 10:24:11;;;;;;;7.03;5.07;;;;;;;-142.25;100.00;58004.16;5043542;28;20472;-66
2023/01/19 10:26:45;;;;;;;11.57;6.40;;;;;;;-142.25;100.00;58004.16;5043189;28;20634;-66
2023/01/19 10:29:21;;;;;;;6.07;5.37;;;;;;;-142.25;100.00;58004.16;5042407;28;20040;-67
2023/01/19 10:32:10;;;;;;;10.87;7.17;;;;;;;-142.25;100.00;58004.16;5037107;28;20587;-66
2023/01/19 10:34:36;;;;;;;8.33;5.57;;;;;;;-142.25;100.00;58004.16;5043395;28;20705;-65
2023/01/19 10:37:10;;;;;;;9.30;6.90;;;;;;;-142.25;100.00;58004.16;5042595;28;20041;-66
2023/01/19 10:39:37;;;;;;;9.63;6.43;;;;;;;-142.25;100.00;58004.16;5042022;28;20040;-67
2023/01/19 10:42:05;;;;;;;10.90;6.23;;;;;;;-142.25;100.00;58004.16;5043790;28;20049;-65
2023/01/19 10:44:35;;;;;;;7.47;5.70;;;;;;;-142.25;100.00;58004.16;5044869;28;20183;-66
2023/01/19 10:47:01;;;;;;;10.90;7.03;;;;;;;-142.25;100.00;58004.16;5044065;28;20079;-67
2023/01/19 10:49:28;;;;;;;11.13;7.57;;;;;;;-142.25;100.00;58004.16;5042041;28;20151;-66
2023/01/19 10:51:56;;;;;;;8.27;6.00;;;;;;;-142.25;100.00;58004.16;5043070;28;20132;-69
2023/01/19 10:54:23;;;;;;;8.20;6.37;;;;;;;-142.25;100.00;58004.16;5040029;28;20086;-73
2023/01/19 10:56:52;;;;;;;9.40;6.33;;;;;;;-142.25;100.00;58004.16;5043998;28;20037;-72
2023/01/19 10:59:48;;;;;;;8.03;6.13;;;;;;;-142.25;100.00;58004.16;5047584;28;20061;-71
2023/01/19 11:02:29;;;;;;;;;;;;;;;-142.25;100.00;58004.16;5049681;28;20052;-72
2023/01/19 11:04:58;;;;;;;7.63;6.30;;;;;;;-142.25;100.00;58004.16;5047115;28;19944;-72
2023/01/19 11:07:34;;;;;;;8.60;6.37;;;;;;;-142.25;100.00;58004.16;5041356;28;20174;-71
2023/01/19 11:10:20;;;;;;;9.20;6.20;;;;;;;-142.25;100.00;58004.16;5041598;28;20049;-71
2023/01/19 11:13:11;;;;;;;6.47;5.23;;;;;;;-142.25;100.00;58004.16;5043617;28;20045;-70
2023/01/19 11:16:05;;;;;;;9.47;8.20;;;;;;;-142.25;100.00;58004.16;5041193;28;20369;-73
2023/01/19 11:18:39;;;;;;;11.70;7.50;;;;;;;-142.25;100.00;58004.16;5030428;28;20268;-69